sensor_id;sensor_type;location;lat;lon;timestamp;P1;durP1;ratioP1;P2;durP2;ratioP2
74080;SDS011;62438;52.228;6.864;2022-07-23T00:00:20;8.02;;;3.60;;
74080;SDS011;62438;52.228;6.864;2022-07-23T00:02:21;11.15;;;4.15;;
74080;SDS011;62438;52.228;6.864;2022-07-23T00:04:21;10.45;;;4.10;;
74080;SDS011;62438;52.228;6.864;2022-07-23T00:06:22;9.02;;;3.90;;
74080;SDS011;62438;52.228;6.864;2022-07-23T00:08:23;8.35;;;3.90;;
74080;SDS011;62438;52.228;6.864;2022-07-23T00:10:23;8.93;;;4.07;;
74080;SDS011;62438;52.228;6.864;2022-07-23T00:12:24;10.52;;;4.63;;
74080;SDS011;62438;52.228;6.864;2022-07-23T00:14:25;8.95;;;4.30;;
74080;SDS011;62438;52.228;6.864;2022-07-23T00:16:25;8.60;;;3.97;;
74080;SDS011;62438;52.228;6.864;2022-07-23T00:18:26;10.75;;;4.10;;
74080;SDS011;62438;52.228;6.864;2022-07-23T00:20:27;10.38;;;4.50;;
74080;SDS011;62438;52.228;6.864;2022-07-23T00:22:27;8.95;;;4.72;;
74080;SDS011;62438;52.228;6.864;2022-07-23T00:24:29;10.52;;;4.28;;
74080;SDS011;62438;52.228;6.864;2022-07-23T00:26:29;9.10;;;4.70;;
74080;SDS011;62438;52.228;6.864;2022-07-23T00:28:30;9.48;;;4.10;;
74080;SDS011;62438;52.228;6.864;2022-07-23T00:30:31;11.27;;;4.45;;
74080;SDS011;62438;52.228;6.864;2022-07-23T00:32:32;13.07;;;4.55;;
74080;SDS011;62438;52.228;6.864;2022-07-23T00:34:32;8.27;;;4.32;;
74080;SDS011;62438;52.228;6.864;2022-07-23T00:36:33;9.23;;;4.78;;
74080;SDS011;62438;52.228;6.864;2022-07-23T00:38:33;13.32;;;4.93;;
74080;SDS011;62438;52.228;6.864;2022-07-23T00:40:33;8.77;;;4.75;;
74080;SDS011;62438;52.228;6.864;2022-07-23T00:42:34;10.13;;;4.75;;
74080;SDS011;62438;52.228;6.864;2022-07-23T00:44:34;11.52;;;4.93;;
74080;SDS011;62438;52.228;6.864;2022-07-23T00:46:35;10.18;;;5.22;;
74080;SDS011;62438;52.228;6.864;2022-07-23T00:48:35;10.80;;;5.05;;
74080;SDS011;62438;52.228;6.864;2022-07-23T00:50:36;10.15;;;4.53;;
74080;SDS011;62438;52.228;6.864;2022-07-23T00:52:37;12.45;;;4.95;;
74080;SDS011;62438;52.228;6.864;2022-07-23T00:54:38;9.65;;;4.55;;
74080;SDS011;62438;52.228;6.864;2022-07-23T00:56:39;11.32;;;4.80;;
74080;SDS011;62438;52.228;6.864;2022-07-23T00:58:41;12.40;;;5.20;;
74080;SDS011;62438;52.228;6.864;2022-07-23T01:00:42;10.48;;;5.13;;
74080;SDS011;62438;52.228;6.864;2022-07-23T01:02:43;9.32;;;5.05;;
74080;SDS011;62438;52.228;6.864;2022-07-23T01:04:44;10.13;;;5.55;;
74080;SDS011;62438;52.228;6.864;2022-07-23T01:06:45;10.23;;;5.65;;
74080;SDS011;62438;52.228;6.864;2022-07-23T01:08:46;11.68;;;5.43;;
74080;SDS011;62438;52.228;6.864;2022-07-23T01:10:46;12.55;;;5.28;;
74080;SDS011;62438;52.228;6.864;2022-07-23T01:14:58;10.47;;;5.40;;
74080;SDS011;62438;52.228;6.864;2022-07-23T01:16:59;9.77;;;5.15;;
74080;SDS011;62438;52.228;6.864;2022-07-23T01:19:00;12.00;;;5.40;;
74080;SDS011;62438;52.228;6.864;2022-07-23T01:21:00;12.82;;;5.93;;
74080;SDS011;62438;52.228;6.864;2022-07-23T01:23:01;16.35;;;5.75;;
74080;SDS011;62438;52.228;6.864;2022-07-23T01:25:02;11.20;;;5.43;;
74080;SDS011;62438;52.228;6.864;2022-07-23T01:27:03;12.10;;;5.88;;
74080;SDS011;62438;52.228;6.864;2022-07-23T01:29:05;14.25;;;5.57;;
74080;SDS011;62438;52.228;6.864;2022-07-23T01:31:06;14.20;;;5.70;;
74080;SDS011;62438;52.228;6.864;2022-07-23T01:33:06;13.35;;;5.32;;
74080;SDS011;62438;52.228;6.864;2022-07-23T01:35:08;13.15;;;5.95;;
74080;SDS011;62438;52.228;6.864;2022-07-23T01:37:09;13.55;;;5.75;;
74080;SDS011;62438;52.228;6.864;2022-07-23T01:39:09;16.73;;;6.10;;
74080;SDS011;62438;52.228;6.864;2022-07-23T01:41:10;13.95;;;6.15;;
74080;SDS011;62438;52.228;6.864;2022-07-23T01:43:10;12.00;;;6.05;;
74080;SDS011;62438;52.228;6.864;2022-07-23T01:45:11;11.27;;;5.68;;
74080;SDS011;62438;52.228;6.864;2022-07-23T01:47:11;14.48;;;6.32;;
74080;SDS011;62438;52.228;6.864;2022-07-23T01:49:11;12.82;;;6.25;;
74080;SDS011;62438;52.228;6.864;2022-07-23T01:51:12;13.23;;;6.15;;
74080;SDS011;62438;52.228;6.864;2022-07-23T01:53:13;13.40;;;6.55;;
74080;SDS011;62438;52.228;6.864;2022-07-23T01:55:13;13.75;;;6.43;;
74080;SDS011;62438;52.228;6.864;2022-07-23T01:57:14;13.02;;;6.32;;
74080;SDS011;62438;52.228;6.864;2022-07-23T01:59:14;12.20;;;6.15;;
74080;SDS011;62438;52.228;6.864;2022-07-23T02:01:15;15.27;;;6.65;;
74080;SDS011;62438;52.228;6.864;2022-07-23T02:03:16;12.73;;;6.20;;
74080;SDS011;62438;52.228;6.864;2022-07-23T02:05:16;13.50;;;6.63;;
74080;SDS011;62438;52.228;6.864;2022-07-23T02:07:17;14.50;;;6.68;;
74080;SDS011;62438;52.228;6.864;2022-07-23T02:09:17;14.05;;;6.63;;
74080;SDS011;62438;52.228;6.864;2022-07-23T02:11:18;15.50;;;6.93;;
74080;SDS011;62438;52.228;6.864;2022-07-23T02:13:18;15.38;;;6.32;;
74080;SDS011;62438;52.228;6.864;2022-07-23T02:15:19;13.57;;;6.68;;
74080;SDS011;62438;52.228;6.864;2022-07-23T02:17:19;15.45;;;6.63;;
74080;SDS011;62438;52.228;6.864;2022-07-23T02:19:20;15.18;;;6.80;;
74080;SDS011;62438;52.228;6.864;2022-07-23T02:21:20;20.00;;;6.85;;
74080;SDS011;62438;52.228;6.864;2022-07-23T02:23:21;13.48;;;6.68;;
74080;SDS011;62438;52.228;6.864;2022-07-23T02:25:21;15.15;;;7.53;;
74080;SDS011;62438;52.228;6.864;2022-07-23T02:27:22;14.07;;;7.07;;
74080;SDS011;62438;52.228;6.864;2022-07-23T02:29:23;14.13;;;6.32;;
74080;SDS011;62438;52.228;6.864;2022-07-23T02:31:23;19.50;;;8.02;;
74080;SDS011;62438;52.228;6.864;2022-07-23T02:33:24;19.52;;;7.78;;
74080;SDS011;62438;52.228;6.864;2022-07-23T02:35:24;17.55;;;7.90;;
74080;SDS011;62438;52.228;6.864;2022-07-23T02:37:25;16.98;;;7.13;;
74080;SDS011;62438;52.228;6.864;2022-07-23T02:39:25;16.67;;;7.78;;
74080;SDS011;62438;52.228;6.864;2022-07-23T02:41:26;14.57;;;7.15;;
74080;SDS011;62438;52.228;6.864;2022-07-23T02:43:26;16.40;;;7.70;;
74080;SDS011;62438;52.228;6.864;2022-07-23T02:45:27;17.17;;;7.30;;
74080;SDS011;62438;52.228;6.864;2022-07-23T02:47:27;15.02;;;7.40;;
74080;SDS011;62438;52.228;6.864;2022-07-23T02:49:28;15.45;;;7.10;;
74080;SDS011;62438;52.228;6.864;2022-07-23T02:51:28;16.58;;;7.78;;
74080;SDS011;62438;52.228;6.864;2022-07-23T02:53:28;15.68;;;7.25;;
74080;SDS011;62438;52.228;6.864;2022-07-23T02:55:29;16.42;;;7.20;;
74080;SDS011;62438;52.228;6.864;2022-07-23T02:57:31;14.05;;;7.10;;
74080;SDS011;62438;52.228;6.864;2022-07-23T02:59:31;14.38;;;7.25;;
74080;SDS011;62438;52.228;6.864;2022-07-23T03:01:32;14.90;;;6.63;;
74080;SDS011;62438;52.228;6.864;2022-07-23T03:03:32;15.55;;;7.18;;
74080;SDS011;62438;52.228;6.864;2022-07-23T03:05:33;16.50;;;7.43;;
74080;SDS011;62438;52.228;6.864;2022-07-23T03:07:34;17.40;;;7.70;;
74080;SDS011;62438;52.228;6.864;2022-07-23T03:09:34;14.10;;;6.65;;
74080;SDS011;62438;52.228;6.864;2022-07-23T03:11:35;16.65;;;7.80;;
74080;SDS011;62438;52.228;6.864;2022-07-23T03:13:35;16.80;;;8.25;;
74080;SDS011;62438;52.228;6.864;2022-07-23T03:15:36;13.90;;;7.50;;
74080;SDS011;62438;52.228;6.864;2022-07-23T03:17:37;17.73;;;7.72;;
74080;SDS011;62438;52.228;6.864;2022-07-23T03:19:37;15.93;;;7.13;;
74080;SDS011;62438;52.228;6.864;2022-07-23T03:21:38;16.20;;;7.40;;
74080;SDS011;62438;52.228;6.864;2022-07-23T03:23:40;16.45;;;7.25;;
74080;SDS011;62438;52.228;6.864;2022-07-23T03:25:41;15.07;;;7.75;;
74080;SDS011;62438;52.228;6.864;2022-07-23T03:27:41;14.27;;;6.88;;
74080;SDS011;62438;52.228;6.864;2022-07-23T03:29:42;22.63;;;7.45;;
74080;SDS011;62438;52.228;6.864;2022-07-23T03:31:42;16.65;;;7.85;;
74080;SDS011;62438;52.228;6.864;2022-07-23T03:33:43;14.82;;;6.93;;
74080;SDS011;62438;52.228;6.864;2022-07-23T03:35:43;17.50;;;7.82;;
74080;SDS011;62438;52.228;6.864;2022-07-23T03:37:44;19.83;;;8.20;;
74080;SDS011;62438;52.228;6.864;2022-07-23T03:39:45;15.90;;;7.30;;
74080;SDS011;62438;52.228;6.864;2022-07-23T03:41:45;15.88;;;7.82;;
74080;SDS011;62438;52.228;6.864;2022-07-23T03:43:46;17.98;;;7.90;;
74080;SDS011;62438;52.228;6.864;2022-07-23T03:45:47;14.88;;;8.10;;
74080;SDS011;62438;52.228;6.864;2022-07-23T03:47:47;20.23;;;8.27;;
74080;SDS011;62438;52.228;6.864;2022-07-23T03:49:48;20.00;;;8.35;;
74080;SDS011;62438;52.228;6.864;2022-07-23T03:51:49;20.88;;;8.07;;
74080;SDS011;62438;52.228;6.864;2022-07-23T03:53:49;16.02;;;7.68;;
74080;SDS011;62438;52.228;6.864;2022-07-23T03:55:50;16.15;;;7.22;;
74080;SDS011;62438;52.228;6.864;2022-07-23T03:57:50;16.52;;;8.05;;
74080;SDS011;62438;52.228;6.864;2022-07-23T03:59:51;21.83;;;7.65;;
74080;SDS011;62438;52.228;6.864;2022-07-23T04:01:51;17.25;;;7.28;;
74080;SDS011;62438;52.228;6.864;2022-07-23T04:03:52;16.45;;;7.65;;
74080;SDS011;62438;52.228;6.864;2022-07-23T04:05:52;17.17;;;7.50;;
74080;SDS011;62438;52.228;6.864;2022-07-23T04:07:52;17.23;;;8.20;;
74080;SDS011;62438;52.228;6.864;2022-07-23T04:09:53;22.48;;;8.63;;
74080;SDS011;62438;52.228;6.864;2022-07-23T04:11:53;18.50;;;7.07;;
74080;SDS011;62438;52.228;6.864;2022-07-23T04:13:54;18.77;;;7.43;;
74080;SDS011;62438;52.228;6.864;2022-07-23T04:15:54;17.13;;;8.13;;
74080;SDS011;62438;52.228;6.864;2022-07-23T04:17:54;17.45;;;7.90;;
74080;SDS011;62438;52.228;6.864;2022-07-23T04:19:55;19.33;;;8.30;;
74080;SDS011;62438;52.228;6.864;2022-07-23T04:21:55;17.92;;;7.88;;
74080;SDS011;62438;52.228;6.864;2022-07-23T04:23:57;20.40;;;8.40;;
74080;SDS011;62438;52.228;6.864;2022-07-23T04:25:57;18.58;;;7.95;;
74080;SDS011;62438;52.228;6.864;2022-07-23T04:27:58;16.58;;;7.35;;
74080;SDS011;62438;52.228;6.864;2022-07-23T04:29:58;22.98;;;8.35;;
74080;SDS011;62438;52.228;6.864;2022-07-23T04:31:59;19.73;;;8.27;;
74080;SDS011;62438;52.228;6.864;2022-07-23T04:33:59;20.45;;;9.27;;
74080;SDS011;62438;52.228;6.864;2022-07-23T04:35:59;15.73;;;7.78;;
74080;SDS011;62438;52.228;6.864;2022-07-23T04:38:00;18.17;;;7.72;;
74080;SDS011;62438;52.228;6.864;2022-07-23T04:40:01;18.42;;;7.72;;
74080;SDS011;62438;52.228;6.864;2022-07-23T04:42:01;20.38;;;7.88;;
74080;SDS011;62438;52.228;6.864;2022-07-23T04:44:02;17.00;;;8.15;;
74080;SDS011;62438;52.228;6.864;2022-07-23T04:46:03;17.95;;;7.68;;
74080;SDS011;62438;52.228;6.864;2022-07-23T04:48:04;20.73;;;8.65;;
74080;SDS011;62438;52.228;6.864;2022-07-23T04:50:04;20.05;;;8.43;;
74080;SDS011;62438;52.228;6.864;2022-07-23T04:52:05;20.50;;;8.27;;
74080;SDS011;62438;52.228;6.864;2022-07-23T04:54:05;18.55;;;8.30;;
74080;SDS011;62438;52.228;6.864;2022-07-23T04:56:06;18.27;;;7.60;;
74080;SDS011;62438;52.228;6.864;2022-07-23T04:58:07;20.45;;;8.35;;
74080;SDS011;62438;52.228;6.864;2022-07-23T05:00:07;18.02;;;8.23;;
74080;SDS011;62438;52.228;6.864;2022-07-23T05:02:09;19.70;;;8.18;;
74080;SDS011;62438;52.228;6.864;2022-07-23T05:04:09;22.10;;;8.55;;
74080;SDS011;62438;52.228;6.864;2022-07-23T05:06:10;18.92;;;8.20;;
74080;SDS011;62438;52.228;6.864;2022-07-23T05:08:10;20.48;;;8.85;;
74080;SDS011;62438;52.228;6.864;2022-07-23T05:10:11;20.00;;;8.57;;
74080;SDS011;62438;52.228;6.864;2022-07-23T05:12:12;19.73;;;8.63;;
74080;SDS011;62438;52.228;6.864;2022-07-23T05:14:12;19.52;;;8.27;;
74080;SDS011;62438;52.228;6.864;2022-07-23T05:16:13;21.27;;;9.55;;
74080;SDS011;62438;52.228;6.864;2022-07-23T05:18:14;20.77;;;9.30;;
74080;SDS011;62438;52.228;6.864;2022-07-23T05:20:14;17.98;;;8.70;;
74080;SDS011;62438;52.228;6.864;2022-07-23T05:22:14;17.33;;;8.50;;
74080;SDS011;62438;52.228;6.864;2022-07-23T05:24:15;17.30;;;8.55;;
74080;SDS011;62438;52.228;6.864;2022-07-23T05:26:15;19.30;;;7.82;;
74080;SDS011;62438;52.228;6.864;2022-07-23T05:28:16;17.67;;;7.63;;
74080;SDS011;62438;52.228;6.864;2022-07-23T05:30:16;18.00;;;7.00;;
74080;SDS011;62438;52.228;6.864;2022-07-23T05:32:16;14.77;;;6.43;;
74080;SDS011;62438;52.228;6.864;2022-07-23T05:34:17;13.57;;;6.25;;
74080;SDS011;62438;52.228;6.864;2022-07-23T05:36:18;11.70;;;6.00;;
74080;SDS011;62438;52.228;6.864;2022-07-23T05:38:18;14.82;;;5.35;;
74080;SDS011;62438;52.228;6.864;2022-07-23T05:40:18;14.30;;;5.57;;
74080;SDS011;62438;52.228;6.864;2022-07-23T05:42:19;11.77;;;5.20;;
74080;SDS011;62438;52.228;6.864;2022-07-23T05:44:19;13.23;;;4.88;;
74080;SDS011;62438;52.228;6.864;2022-07-23T05:46:20;10.68;;;3.90;;
74080;SDS011;62438;52.228;6.864;2022-07-23T05:48:21;9.00;;;3.95;;
74080;SDS011;62438;52.228;6.864;2022-07-23T05:50:21;11.77;;;3.65;;
74080;SDS011;62438;52.228;6.864;2022-07-23T05:52:22;10.73;;;3.78;;
74080;SDS011;62438;52.228;6.864;2022-07-23T05:54:22;10.45;;;3.78;;
74080;SDS011;62438;52.228;6.864;2022-07-23T05:56:23;8.18;;;3.72;;
74080;SDS011;62438;52.228;6.864;2022-07-23T05:58:23;8.75;;;3.55;;
74080;SDS011;62438;52.228;6.864;2022-07-23T06:00:24;11.23;;;3.97;;
74080;SDS011;62438;52.228;6.864;2022-07-23T06:02:25;10.02;;;3.45;;
74080;SDS011;62438;52.228;6.864;2022-07-23T06:04:26;9.10;;;3.00;;
74080;SDS011;62438;52.228;6.864;2022-07-23T06:06:26;7.55;;;4.00;;
74080;SDS011;62438;52.228;6.864;2022-07-23T06:08:27;7.95;;;3.08;;
74080;SDS011;62438;52.228;6.864;2022-07-23T06:10:27;9.07;;;3.53;;
74080;SDS011;62438;52.228;6.864;2022-07-23T06:12:27;8.95;;;3.60;;
74080;SDS011;62438;52.228;6.864;2022-07-23T06:14:28;7.65;;;3.22;;
74080;SDS011;62438;52.228;6.864;2022-07-23T06:16:28;8.38;;;3.67;;
74080;SDS011;62438;52.228;6.864;2022-07-23T06:18:29;9.55;;;3.30;;
74080;SDS011;62438;52.228;6.864;2022-07-23T06:20:30;7.80;;;3.13;;
74080;SDS011;62438;52.228;6.864;2022-07-23T06:22:30;9.65;;;3.28;;
74080;SDS011;62438;52.228;6.864;2022-07-23T06:24:31;8.55;;;2.67;;
74080;SDS011;62438;52.228;6.864;2022-07-23T06:26:31;10.57;;;2.88;;
74080;SDS011;62438;52.228;6.864;2022-07-23T06:28:32;10.00;;;2.95;;
74080;SDS011;62438;52.228;6.864;2022-07-23T06:30:32;8.13;;;2.58;;
74080;SDS011;62438;52.228;6.864;2022-07-23T06:32:33;6.70;;;2.55;;
74080;SDS011;62438;52.228;6.864;2022-07-23T06:34:33;9.25;;;2.53;;
74080;SDS011;62438;52.228;6.864;2022-07-23T06:36:34;10.23;;;2.40;;
74080;SDS011;62438;52.228;6.864;2022-07-23T06:38:34;8.30;;;2.30;;
74080;SDS011;62438;52.228;6.864;2022-07-23T06:40:35;7.18;;;2.20;;
74080;SDS011;62438;52.228;6.864;2022-07-23T06:42:35;6.63;;;2.58;;
74080;SDS011;62438;52.228;6.864;2022-07-23T06:44:42;8.45;;;2.85;;
74080;SDS011;62438;52.228;6.864;2022-07-23T06:46:42;7.88;;;2.72;;
74080;SDS011;62438;52.228;6.864;2022-07-23T06:48:43;8.73;;;2.70;;
74080;SDS011;62438;52.228;6.864;2022-07-23T06:50:43;7.13;;;2.67;;
74080;SDS011;62438;52.228;6.864;2022-07-23T06:52:44;6.60;;;2.72;;
74080;SDS011;62438;52.228;6.864;2022-07-23T06:54:44;8.57;;;3.00;;
74080;SDS011;62438;52.228;6.864;2022-07-23T06:56:45;7.45;;;2.47;;
74080;SDS011;62438;52.228;6.864;2022-07-23T06:58:45;6.32;;;2.30;;
74080;SDS011;62438;52.228;6.864;2022-07-23T07:00:46;8.00;;;2.60;;
74080;SDS011;62438;52.228;6.864;2022-07-23T07:02:46;9.55;;;2.50;;
74080;SDS011;62438;52.228;6.864;2022-07-23T07:04:47;5.88;;;2.58;;
74080;SDS011;62438;52.228;6.864;2022-07-23T07:06:47;7.53;;;2.58;;
74080;SDS011;62438;52.228;6.864;2022-07-23T07:08:47;7.05;;;2.63;;
74080;SDS011;62438;52.228;6.864;2022-07-23T07:10:48;5.85;;;1.92;;
74080;SDS011;62438;52.228;6.864;2022-07-23T07:12:49;6.40;;;2.10;;
74080;SDS011;62438;52.228;6.864;2022-07-23T07:14:49;7.75;;;1.95;;
74080;SDS011;62438;52.228;6.864;2022-07-23T07:16:50;6.13;;;2.10;;
74080;SDS011;62438;52.228;6.864;2022-07-23T07:18:50;8.57;;;2.30;;
74080;SDS011;62438;52.228;6.864;2022-07-23T07:20:50;5.85;;;2.15;;
74080;SDS011;62438;52.228;6.864;2022-07-23T07:22:51;7.85;;;2.30;;
74080;SDS011;62438;52.228;6.864;2022-07-23T07:24:51;5.90;;;2.10;;
74080;SDS011;62438;52.228;6.864;2022-07-23T07:26:52;7.32;;;2.00;;
74080;SDS011;62438;52.228;6.864;2022-07-23T07:28:53;6.47;;;1.85;;
74080;SDS011;62438;52.228;6.864;2022-07-23T07:30:53;5.50;;;1.80;;
74080;SDS011;62438;52.228;6.864;2022-07-23T07:32:54;6.18;;;2.05;;
74080;SDS011;62438;52.228;6.864;2022-07-23T07:34:54;8.90;;;2.22;;
74080;SDS011;62438;52.228;6.864;2022-07-23T07:36:54;7.90;;;1.73;;
74080;SDS011;62438;52.228;6.864;2022-07-23T07:38:55;7.18;;;2.00;;
74080;SDS011;62438;52.228;6.864;2022-07-23T07:40:55;7.47;;;1.90;;
74080;SDS011;62438;52.228;6.864;2022-07-23T07:42:56;5.28;;;1.48;;
74080;SDS011;62438;52.228;6.864;2022-07-23T07:44:59;5.70;;;1.70;;
74080;SDS011;62438;52.228;6.864;2022-07-23T07:47:00;11.32;;;1.80;;
74080;SDS011;62438;52.228;6.864;2022-07-23T07:49:00;6.13;;;1.70;;
74080;SDS011;62438;52.228;6.864;2022-07-23T07:51:01;5.45;;;1.50;;
74080;SDS011;62438;52.228;6.864;2022-07-23T07:53:01;4.97;;;1.50;;
74080;SDS011;62438;52.228;6.864;2022-07-23T07:55:03;4.72;;;1.42;;
74080;SDS011;62438;52.228;6.864;2022-07-23T07:57:05;5.30;;;1.30;;
74080;SDS011;62438;52.228;6.864;2022-07-23T07:59:05;8.00;;;1.17;;
74080;SDS011;62438;52.228;6.864;2022-07-23T08:01:05;5.55;;;1.45;;
74080;SDS011;62438;52.228;6.864;2022-07-23T08:03:06;4.53;;;1.50;;
74080;SDS011;62438;52.228;6.864;2022-07-23T08:05:07;4.88;;;1.30;;
74080;SDS011;62438;52.228;6.864;2022-07-23T08:07:07;5.60;;;1.23;;
74080;SDS011;62438;52.228;6.864;2022-07-23T08:09:08;4.55;;;1.20;;
74080;SDS011;62438;52.228;6.864;2022-07-23T08:11:08;7.88;;;1.45;;
74080;SDS011;62438;52.228;6.864;2022-07-23T08:13:11;4.65;;;1.50;;
74080;SDS011;62438;52.228;6.864;2022-07-23T08:15:16;5.82;;;1.20;;
74080;SDS011;62438;52.228;6.864;2022-07-23T08:17:27;6.65;;;1.30;;
74080;SDS011;62438;52.228;6.864;2022-07-23T08:19:28;3.50;;;0.82;;
74080;SDS011;62438;52.228;6.864;2022-07-23T08:21:28;3.65;;;1.02;;
74080;SDS011;62438;52.228;6.864;2022-07-23T08:23:28;4.57;;;1.23;;
74080;SDS011;62438;52.228;6.864;2022-07-23T08:25:30;5.05;;;1.63;;
74080;SDS011;62438;52.228;6.864;2022-07-23T08:27:32;3.92;;;1.17;;
74080;SDS011;62438;52.228;6.864;2022-07-23T08:29:32;7.28;;;1.13;;
74080;SDS011;62438;52.228;6.864;2022-07-23T08:31:32;4.80;;;1.23;;
74080;SDS011;62438;52.228;6.864;2022-07-23T08:33:33;5.00;;;1.38;;
74080;SDS011;62438;52.228;6.864;2022-07-23T08:35:35;7.43;;;1.27;;
74080;SDS011;62438;52.228;6.864;2022-07-23T08:37:40;3.40;;;1.13;;
74080;SDS011;62438;52.228;6.864;2022-07-23T08:39:40;5.80;;;1.17;;
74080;SDS011;62438;52.228;6.864;2022-07-23T08:41:41;7.10;;;1.20;;
74080;SDS011;62438;52.228;6.864;2022-07-23T08:43:42;4.68;;;1.38;;
74080;SDS011;62438;52.228;6.864;2022-07-23T08:45:44;4.10;;;1.20;;
74080;SDS011;62438;52.228;6.864;2022-07-23T08:47:47;2.67;;;1.40;;
74080;SDS011;62438;52.228;6.864;2022-07-23T08:49:52;5.30;;;1.38;;
74080;SDS011;62438;52.228;6.864;2022-07-23T08:51:53;4.72;;;1.40;;
74080;SDS011;62438;52.228;6.864;2022-07-23T08:53:56;5.07;;;1.30;;
74080;SDS011;62438;52.228;6.864;2022-07-23T08:55:58;4.68;;;1.23;;
74080;SDS011;62438;52.228;6.864;2022-07-23T08:58:01;4.50;;;1.25;;
74080;SDS011;62438;52.228;6.864;2022-07-23T09:00:03;4.40;;;1.17;;
74080;SDS011;62438;52.228;6.864;2022-07-23T09:02:05;3.72;;;1.25;;
74080;SDS011;62438;52.228;6.864;2022-07-23T09:04:05;6.05;;;1.30;;
74080;SDS011;62438;52.228;6.864;2022-07-23T09:06:06;3.40;;;1.23;;
74080;SDS011;62438;52.228;6.864;2022-07-23T09:08:08;6.97;;;1.40;;
74080;SDS011;62438;52.228;6.864;2022-07-23T09:10:13;6.15;;;1.35;;
74080;SDS011;62438;52.228;6.864;2022-07-23T09:12:13;5.80;;;1.50;;
74080;SDS011;62438;52.228;6.864;2022-07-23T09:14:14;6.43;;;1.40;;
74080;SDS011;62438;52.228;6.864;2022-07-23T09:18:19;3.58;;;1.15;;
74080;SDS011;62438;52.228;6.864;2022-07-23T09:20:27;4.85;;;1.33;;
74080;SDS011;62438;52.228;6.864;2022-07-23T09:22:30;3.72;;;1.10;;
74080;SDS011;62438;52.228;6.864;2022-07-23T09:24:31;5.15;;;1.52;;
74080;SDS011;62438;52.228;6.864;2022-07-23T09:26:44;5.10;;;1.88;;
74080;SDS011;62438;52.228;6.864;2022-07-23T09:29:05;4.28;;;1.48;;
74080;SDS011;62438;52.228;6.864;2022-07-23T09:31:15;4.68;;;1.48;;
74080;SDS011;62438;52.228;6.864;2022-07-23T09:33:16;2.65;;;0.93;;
74080;SDS011;62438;52.228;6.864;2022-07-23T09:35:16;5.82;;;1.08;;
74080;SDS011;62438;52.228;6.864;2022-07-23T09:37:18;5.20;;;1.33;;
74080;SDS011;62438;52.228;6.864;2022-07-23T09:39:25;4.85;;;1.60;;
74080;SDS011;62438;52.228;6.864;2022-07-23T09:44:16;4.15;;;1.20;;
74080;SDS011;62438;52.228;6.864;2022-07-23T09:46:23;4.95;;;1.20;;
74080;SDS011;62438;52.228;6.864;2022-07-23T09:48:26;5.45;;;1.50;;
74080;SDS011;62438;52.228;6.864;2022-07-23T09:50:26;5.20;;;1.27;;
74080;SDS011;62438;52.228;6.864;2022-07-23T09:52:28;3.47;;;1.00;;
74080;SDS011;62438;52.228;6.864;2022-07-23T09:54:36;5.28;;;1.15;;
74080;SDS011;62438;52.228;6.864;2022-07-23T09:56:39;4.85;;;1.23;;
74080;SDS011;62438;52.228;6.864;2022-07-23T09:58:41;3.85;;;1.05;;
74080;SDS011;62438;52.228;6.864;2022-07-23T10:00:51;3.63;;;1.10;;
74080;SDS011;62438;52.228;6.864;2022-07-23T10:02:52;4.90;;;1.45;;
74080;SDS011;62438;52.228;6.864;2022-07-23T10:04:54;5.78;;;1.13;;
74080;SDS011;62438;52.228;6.864;2022-07-23T10:06:56;4.10;;;1.40;;
74080;SDS011;62438;52.228;6.864;2022-07-23T10:09:00;3.60;;;1.10;;
74080;SDS011;62438;52.228;6.864;2022-07-23T10:11:03;5.53;;;1.42;;
74080;SDS011;62438;52.228;6.864;2022-07-23T10:13:05;5.50;;;1.45;;
74080;SDS011;62438;52.228;6.864;2022-07-23T10:15:25;5.32;;;1.25;;
74080;SDS011;62438;52.228;6.864;2022-07-23T10:18:11;3.65;;;1.13;;
74080;SDS011;62438;52.228;6.864;2022-07-23T10:19:49;4.55;;;1.45;;
74080;SDS011;62438;52.228;6.864;2022-07-23T10:21:55;3.50;;;1.27;;
74080;SDS011;62438;52.228;6.864;2022-07-23T10:24:20;3.28;;;1.13;;
74080;SDS011;62438;52.228;6.864;2022-07-23T10:26:29;4.28;;;1.15;;
74080;SDS011;62438;52.228;6.864;2022-07-23T10:29:02;5.22;;;1.27;;
74080;SDS011;62438;52.228;6.864;2022-07-23T10:31:18;5.38;;;1.27;;
74080;SDS011;62438;52.228;6.864;2022-07-23T10:38:30;6.03;;;1.10;;
74080;SDS011;62438;52.228;6.864;2022-07-23T10:42:37;3.90;;;1.20;;
74080;SDS011;62438;52.228;6.864;2022-07-23T10:44:42;4.70;;;1.27;;
74080;SDS011;62438;52.228;6.864;2022-07-23T10:49:26;3.60;;;1.35;;
74080;SDS011;62438;52.228;6.864;2022-07-23T10:51:28;4.22;;;1.52;;
74080;SDS011;62438;52.228;6.864;2022-07-23T10:53:29;5.10;;;1.15;;
74080;SDS011;62438;52.228;6.864;2022-07-23T10:55:53;4.53;;;1.38;;
74080;SDS011;62438;52.228;6.864;2022-07-23T10:57:55;6.43;;;1.50;;
74080;SDS011;62438;52.228;6.864;2022-07-23T11:00:08;5.43;;;1.58;;
74080;SDS011;62438;52.228;6.864;2022-07-23T11:02:20;6.30;;;1.40;;
74080;SDS011;62438;52.228;6.864;2022-07-23T11:09:10;5.38;;;1.40;;
74080;SDS011;62438;52.228;6.864;2022-07-23T11:11:25;3.97;;;1.35;;
74080;SDS011;62438;52.228;6.864;2022-07-23T11:13:28;6.88;;;1.83;;
74080;SDS011;62438;52.228;6.864;2022-07-23T11:15:33;3.88;;;1.58;;
74080;SDS011;62438;52.228;6.864;2022-07-23T11:18:02;4.88;;;1.58;;
74080;SDS011;62438;52.228;6.864;2022-07-23T11:22:10;7.70;;;1.30;;
74080;SDS011;62438;52.228;6.864;2022-07-23T11:24:34;4.78;;;1.25;;
74080;SDS011;62438;52.228;6.864;2022-07-23T11:26:58;5.50;;;1.33;;
74080;SDS011;62438;52.228;6.864;2022-07-23T11:31:26;6.55;;;1.73;;
74080;SDS011;62438;52.228;6.864;2022-07-23T11:33:26;4.75;;;1.33;;
74080;SDS011;62438;52.228;6.864;2022-07-23T11:35:27;5.75;;;1.55;;
74080;SDS011;62438;52.228;6.864;2022-07-23T11:37:29;6.50;;;2.28;;
74080;SDS011;62438;52.228;6.864;2022-07-23T11:39:33;5.63;;;1.40;;
74080;SDS011;62438;52.228;6.864;2022-07-23T11:41:44;7.82;;;1.80;;
74080;SDS011;62438;52.228;6.864;2022-07-23T11:43:45;5.13;;;1.65;;
74080;SDS011;62438;52.228;6.864;2022-07-23T11:45:47;7.30;;;1.98;;
74080;SDS011;62438;52.228;6.864;2022-07-23T11:47:50;8.27;;;1.45;;
74080;SDS011;62438;52.228;6.864;2022-07-23T11:49:55;4.53;;;1.50;;
74080;SDS011;62438;52.228;6.864;2022-07-23T11:52:05;5.45;;;1.67;;
74080;SDS011;62438;52.228;6.864;2022-07-23T11:54:07;5.63;;;1.60;;
74080;SDS011;62438;52.228;6.864;2022-07-23T11:56:08;4.53;;;1.50;;
74080;SDS011;62438;52.228;6.864;2022-07-23T11:58:11;6.32;;;1.52;;
74080;SDS011;62438;52.228;6.864;2022-07-23T12:00:15;5.05;;;1.52;;
74080;SDS011;62438;52.228;6.864;2022-07-23T12:02:17;4.38;;;1.65;;
74080;SDS011;62438;52.228;6.864;2022-07-23T12:04:20;7.60;;;1.85;;
74080;SDS011;62438;52.228;6.864;2022-07-23T12:06:21;6.85;;;1.63;;
74080;SDS011;62438;52.228;6.864;2022-07-23T12:08:21;4.63;;;1.17;;
74080;SDS011;62438;52.228;6.864;2022-07-23T12:10:26;5.10;;;1.75;;
74080;SDS011;62438;52.228;6.864;2022-07-23T12:12:35;8.38;;;1.70;;
74080;SDS011;62438;52.228;6.864;2022-07-23T12:14:53;5.30;;;1.42;;
74080;SDS011;62438;52.228;6.864;2022-07-23T12:17:09;4.80;;;1.65;;
74080;SDS011;62438;52.228;6.864;2022-07-23T12:19:11;5.40;;;1.63;;
74080;SDS011;62438;52.228;6.864;2022-07-23T12:21:11;4.93;;;1.83;;
74080;SDS011;62438;52.228;6.864;2022-07-23T12:23:13;5.85;;;1.80;;
74080;SDS011;62438;52.228;6.864;2022-07-23T12:25:19;7.00;;;1.80;;
74080;SDS011;62438;52.228;6.864;2022-07-23T12:27:22;6.18;;;1.80;;
74080;SDS011;62438;52.228;6.864;2022-07-23T12:29:33;4.53;;;1.52;;
74080;SDS011;62438;52.228;6.864;2022-07-23T12:31:34;5.88;;;2.00;;
74080;SDS011;62438;52.228;6.864;2022-07-23T12:33:39;47.85;;;6.28;;
74080;SDS011;62438;52.228;6.864;2022-07-23T12:35:43;7.47;;;2.38;;